Time,TemperatureF,DewpointF,PressureIn,WindDirection,WindDirectionDegrees,WindSpeedMPH,WindSpeedGustMPH,Humidity,HourlyPrecipIn,Conditions,Clouds,dailyrainin,SoftwareType,DateUTC
2013-11-11 00:01:00,57.2,49.7,29.47,SSE,153,4.5,5.1,76,0.04,,BKN,-99.99,VWS V12.07,2013-11-10 23:01:00,
2013-11-11 00:11:00,57.4,50.2,29.47,ENE,69,6.0,6.0,77,0.04,,BKN,-99.99,VWS V12.07,2013-11-10 23:11:00,
2013-11-11 00:21:00,57.4,49.5,29.44,East,91,5.6,5.6,75,0.04,,BKN,-99.99,VWS V12.07,2013-11-10 23:21:00,
2013-11-11 00:31:00,57.6,49.7,29.44,ESE,109,4.5,6.5,75,0.04,,BKN,-99.99,VWS V12.07,2013-11-10 23:31:00,
2013-11-11 00:41:00,57.4,49.2,29.44,ESE,108,8.7,8.7,74,0.00, -RA,-RA,-99.99,VWS V12.07,2013-11-10 23:41:00,
2013-11-11 00:51:00,57.2,49.4,29.44,ENE,75,4.0,5.1,75,0.00, -RA,-RA,-99.99,VWS V12.07,2013-11-10 23:51:00,
2013-11-11 01:01:00,57.6,49.7,29.44,East,93,0.0,3.1,75,0.00, -RA,-RA,-99.99,VWS V12.07,2013-11-11 00:01:00,
2013-11-11 01:11:00,57.0,50.9,29.44,SSE,149,6.0,10.7,80,0.04, -RA,-RA,-99.99,VWS V12.07,2013-11-11 00:11:00,
2013-11-11 01:21:00,56.3,50.9,29.44,NW,304,6.9,11.6,82,0.16,,BKN,-99.99,VWS V12.07,2013-11-11 00:21:00,
2013-11-11 01:31:00,56.1,51.0,29.44,NW,312,4.7,6.0,83,0.16,,BKN,-99.99,VWS V12.07,2013-11-11 00:31:00,
2013-11-11 01:41:00,55.9,50.9,29.44,NW,312,2.7,3.6,83,0.16,,BKN,-99.99,VWS V12.07,2013-11-11 00:41:00,
2013-11-11 01:51:00,55.9,51.5,29.41,SSW,205,0.0,4.7,85,0.16,,BKN,-99.99,VWS V12.07,2013-11-11 00:51:00,
2013-11-11 02:01:00,55.9,52.1,29.41,East,99,4.5,4.7,87,0.16,,BKN,-99.99,VWS V12.07,2013-11-11 01:01:00,
2013-11-11 02:11:00,55.8,50.7,29.41,SSE,162,4.0,4.0,83,0.12,,BKN,-99.99,VWS V12.07,2013-11-11 01:11:00,
2013-11-11 02:21:00,55.8,52.0,29.41,East,87,3.6,3.6,87,0.00,,BKN,-99.99,VWS V12.07,2013-11-11 01:21:00,
2013-11-11 02:31:00,55.4,51.9,29.41,ESE,121,6.0,6.0,88,0.00,,BKN,-99.99,VWS V12.07,2013-11-11 01:31:00,
2013-11-11 02:41:00,55.2,52.3,29.41,ESE,111,5.6,7.8,90,0.00,,BKN,-99.99,VWS V12.07,2013-11-11 01:41:00,
2013-11-11 02:51:00,55.2,49.5,29.38,ESE,116,0.0,6.9,81,0.00,,BKN,-99.99,VWS V12.07,2013-11-11 01:51:00,
2013-11-11 03:01:00,55.4,49.0,29.38,East,85,3.1,4.0,79,0.04,,BKN,-99.99,VWS V12.07,2013-11-11 02:01:00,
2013-11-11 03:11:00,55.2,49.2,29.38,ESE,122,3.6,4.7,80,0.04,,BKN,-99.99,VWS V12.07,2013-11-11 02:11:00,
2013-11-11 03:21:00,54.7,48.6,29.38,ENE,78,5.1,8.7,80,0.04,,BKN,-99.99,VWS V12.07,2013-11-11 02:21:00,
2013-11-11 03:31:00,54.9,47.8,29.38,East,84,4.5,9.4,77,0.04,,BKN,-99.99,VWS V12.07,2013-11-11 02:31:00,
2013-11-11 03:41:00,54.9,47.8,29.35,ESE,118,4.7,7.4,77,0.04,,BKN,-99.99,VWS V12.07,2013-11-11 02:41:00,
2013-11-11 03:51:00,54.9,47.1,29.35,ESE,105,7.4,7.8,75,0.04,,BKN,-99.99,VWS V12.07,2013-11-11 02:51:00,
2013-11-11 04:01:00,54.7,46.2,29.35,ESE,104,7.4,8.7,73,0.00,,BKN,-99.99,VWS V12.07,2013-11-11 03:01:00,
2013-11-11 04:11:00,54.7,45.1,29.35,ESE,111,5.1,8.3,70,0.00,,BKN,-99.99,VWS V12.07,2013-11-11 03:11:00,
2013-11-11 04:21:00,54.9,45.3,29.35,SE,133,4.5,8.7,70,0.00,,BKN,-99.99,VWS V12.07,2013-11-11 03:21:00,
2013-11-11 04:31:00,55.0,41.8,29.35,ESE,121,8.7,8.7,61,0.00,,BKN,-99.99,VWS V12.07,2013-11-11 03:31:00,
2013-11-11 04:41:00,55.4,39.0,29.32,ESE,103,5.1,10.3,54,0.00,,SCT020,-99.99,VWS V12.07,2013-11-11 03:41:00,
2013-11-11 04:51:00,55.6,40.2,29.32,East,101,6.9,9.4,56,0.00,,SCT020,-99.99,VWS V12.07,2013-11-11 03:51:00,
2013-11-11 05:01:00,55.6,40.2,29.32,ESE,112,5.6,9.4,56,0.00,,SCT020,-99.99,VWS V12.07,2013-11-11 04:01:00,
2013-11-11 05:11:00,55.0,41.0,29.32,SE,128,5.1,6.0,59,0.00,,SCT020,-99.99,VWS V12.07,2013-11-11 04:11:00,
2013-11-11 05:21:00,54.7,42.3,29.32,ESE,113,2.7,6.0,63,0.00,,SCT020,-99.99,VWS V12.07,2013-11-11 04:21:00,
2013-11-11 05:31:00,54.7,41.9,29.32,ESE,115,3.6,4.5,62,0.00,,SCT020,-99.99,VWS V12.07,2013-11-11 04:31:00,
2013-11-11 05:41:00,54.7,41.9,29.32,East,95,3.1,6.0,62,0.00, -RA,-RA,-99.99,VWS V12.07,2013-11-11 04:41:00,
2013-11-11 05:51:00,54.1,42.7,29.32,SSE,151,4.7,4.7,65,0.00, -RA,-RA,-99.99,VWS V12.07,2013-11-11 04:51:00,
2013-11-11 06:01:00,53.1,42.0,29.32,SE,128,15.0,15.9,66,0.00, -RA,-RA,-99.99,VWS V12.07,2013-11-11 05:01:00,
2013-11-11 06:11:00,52.3,40.1,29.32,SE,142,7.4,9.4,63,0.04, -RA,-RA,-99.99,VWS V12.07,2013-11-11 05:11:00,
2013-11-11 06:21:00,51.8,40.8,29.32,East,83,8.3,11.2,66,0.04, -RA,-RA,-99.99,VWS V12.07,2013-11-11 05:21:00,
2013-11-11 06:31:00,52.0,41.0,29.32,East,93,7.8,8.9,66,0.04, -RA,-RA,-99.99,VWS V12.07,2013-11-11 05:31:00,
2013-11-11 06:41:00,52.5,41.1,29.32,ESE,119,4.7,10.3,65,0.04,,BKN,-99.99,VWS V12.07,2013-11-11 05:41:00,
2013-11-11 06:51:00,51.8,42.3,29.32,East,80,12.5,12.5,70,0.08,,BKN,-99.99,VWS V12.07,2013-11-11 05:51:00,
2013-11-11 07:01:00,51.6,42.5,29.32,ENE,71,10.3,11.6,71,0.08,,BKN,-99.99,VWS V12.07,2013-11-11 06:01:00,
2013-11-11 07:10:00,52.0,41.0,29.32,East,86,13.0,13.0,66,0.04,,BKN,-99.99,VWS V12.07,2013-11-11 06:10:00,
2013-11-11 07:21:00,52.7,38.3,29.32,NE,45,8.9,12.5,58,0.04,,BKN,-99.99,VWS V12.07,2013-11-11 06:21:00,
2013-11-11 07:31:00,52.7,38.8,29.32,ENE,60,12.1,13.0,59,0.04,,BKN,-99.99,VWS V12.07,2013-11-11 06:31:00,
2013-11-11 07:41:00,53.1,38.7,29.32,East,91,13.0,13.2,58,0.04, -RA,-RA,-99.99,VWS V12.07,2013-11-11 06:41:00,
2013-11-11 07:51:00,53.1,37.8,29.35,ESE,105,13.6,13.6,56,0.00, -RA,-RA,-99.99,VWS V12.07,2013-11-11 06:51:00,
2013-11-11 08:01:00,52.7,38.3,29.35,NE,37,6.9,11.2,58,0.00, -RA,-RA,-99.99,VWS V12.07,2013-11-11 07:01:00,
2013-11-11 08:11:00,52.9,38.1,29.35,ENE,75,7.4,10.3,57,0.04, -RA,-RA,-99.99,VWS V12.07,2013-11-11 07:11:00,
2013-11-11 08:21:00,53.4,37.7,29.35,ENE,60,9.8,15.0,55,0.04, -RA,-RA,-99.99,VWS V12.07,2013-11-11 07:21:00,
2013-11-11 08:31:00,53.6,37.8,29.35,NE,49,11.6,16.3,55,0.04, -RA,-RA,-99.99,VWS V12.07,2013-11-11 07:31:00,
2013-11-11 08:41:00,53.1,37.8,29.35,ENE,76,10.7,11.2,56,0.04, -RA,-RA,-99.99,VWS V12.07,2013-11-11 07:41:00,
2013-11-11 08:51:00,53.2,38.0,29.35,ESE,113,11.6,14.1,56,0.04, -RA,-RA,-99.99,VWS V12.07,2013-11-11 07:51:00,
2013-11-11 09:01:00,53.4,39.0,29.35,NE,54,10.3,10.7,58,0.04, -RA,-RA,-99.99,VWS V12.07,2013-11-11 08:01:00,
2013-11-11 09:11:00,53.6,38.8,29.35,SE,140,9.4,11.6,57,0.00, -RA,-RA,-99.99,VWS V12.07,2013-11-11 08:11:00,
2013-11-11 09:21:00,54.0,38.6,29.35,East,86,8.7,13.2,56,0.00, -RA,-RA,-99.99,VWS V12.07,2013-11-11 08:21:00,
2013-11-11 09:41:00,54.5,38.7,29.35,ENE,75,7.4,11.6,55,0.04,,OVC,-99.99,VWS V12.07,2013-11-11 08:41:00,
2013-11-11 09:51:00,54.9,38.5,29.35,ENE,71,11.6,11.6,54,0.04,,OVC,-99.99,VWS V12.07,2013-11-11 08:51:00,
2013-11-11 10:01:00,54.7,39.8,29.35,East,89,12.1,13.0,57,0.04,,OVC,-99.99,VWS V12.07,2013-11-11 09:01:00,
2013-11-11 10:11:00,54.7,40.2,29.38,ENE,74,7.4,11.2,58,0.04,,OVC,-99.99,VWS V12.07,2013-11-11 09:11:00,
2013-11-11 10:21:00,55.0,40.1,29.38,ENE,73,7.4,11.6,57,0.04,,OVC,-99.99,VWS V12.07,2013-11-11 09:21:00,
2013-11-11 10:31:00,56.1,38.8,29.38,NE,49,8.9,11.2,52,0.04,,OVC,-99.99,VWS V12.07,2013-11-11 09:31:00,
2013-11-11 10:41:00,56.8,36.8,29.38,ENE,63,9.8,14.1,47,0.00,,SCT030,-99.99,VWS V12.07,2013-11-11 09:41:00,
2013-11-11 10:51:00,57.4,36.8,29.38,ESE,110,12.5,13.6,46,0.00,,SCT030,-99.99,VWS V12.07,2013-11-11 09:51:00,
2013-11-11 11:01:00,57.4,36.2,29.38,East,91,5.1,10.7,45,0.00,,SCT030,-99.99,VWS V12.07,2013-11-11 10:01:00,
2013-11-11 11:11:00,56.8,36.8,29.38,NE,51,13.2,15.0,47,0.00,,SCT030,-99.99,VWS V12.07,2013-11-11 10:11:00,
2013-11-11 11:21:00,56.8,36.8,29.38,ENE,61,11.2,11.6,47,0.00,,SCT030,-99.99,VWS V12.07,2013-11-11 10:21:00,
2013-11-11 11:31:00,57.4,36.2,29.38,East,93,8.9,11.6,45,0.00,,SCT030,-99.99,VWS V12.07,2013-11-11 10:31:00,
2013-11-11 11:41:00,58.6,35.0,29.38,East,91,8.9,14.5,41,0.00, -RA,-RA,-99.99,VWS V12.07,2013-11-11 10:41:00,
2013-11-11 11:51:00,59.2,36.1,29.38,East,84,5.6,13.6,42,0.00, -RA,-RA,-99.99,VWS V12.07,2013-11-11 10:51:00,
2013-11-11 12:01:00,59.2,37.3,29.38,NE,46,7.4,12.5,44,0.00, -RA,-RA,-99.99,VWS V12.07,2013-11-11 11:01:00,
2013-11-11 12:11:00,58.5,37.8,29.38,ENE,70,5.1,13.0,46,0.00, -RA,-RA,-99.99,VWS V12.07,2013-11-11 11:11:00,
2013-11-11 12:21:00,58.3,36.5,29.38,ESE,123,6.5,15.9,44,0.00, -RA,-RA,-99.99,VWS V12.07,2013-11-11 11:21:00,
2013-11-11 12:31:00,59.0,36.6,29.38,ESE,115,13.6,17.9,43,0.00, -RA,-RA,-99.99,VWS V12.07,2013-11-11 11:31:00,
2013-11-11 12:41:00,59.0,37.7,29.38,East,83,12.5,12.5,45,0.00,,BKN,-99.99,VWS V12.07,2013-11-11 11:41:00,
2013-11-11 12:51:00,59.2,35.5,29.38,ESE,110,9.8,15.9,41,0.00,,BKN,-99.99,VWS V12.07,2013-11-11 11:51:00,
2013-11-11 13:01:00,58.3,38.2,29.38,ESE,112,12.5,15.0,47,0.00,,BKN,-99.99,VWS V12.07,2013-11-11 12:01:00,
2013-11-11 13:11:00,58.1,38.5,29.38,ENE,57,10.7,17.7,48,0.00,,BKN,-99.99,VWS V12.07,2013-11-11 12:11:00,
2013-11-11 13:21:00,58.6,39.0,29.38,ESE,111,13.2,13.2,48,0.00,,BKN,-99.99,VWS V12.07,2013-11-11 12:21:00,
2013-11-11 13:32:00,58.3,38.2,29.41,ENE,61,11.6,15.4,47,0.00,,BKN,-99.99,VWS V12.07,2013-11-11 12:32:00,
2013-11-11 13:41:00,59.2,37.9,29.41,ENE,68,15.4,17.9,45,0.00,,BKN,-99.99,VWS V12.07,2013-11-11 12:41:00,
2013-11-11 13:51:00,59.4,37.5,29.41,ENE,76,12.5,16.3,44,0.00,,BKN,-99.99,VWS V12.07,2013-11-11 12:51:00,
2013-11-11 14:01:00,59.7,36.6,29.41,East,101,6.5,15.4,42,0.00,,BKN,-99.99,VWS V12.07,2013-11-11 13:01:00,
2013-11-11 14:11:00,60.1,36.9,29.41,East,82,12.1,14.1,42,0.00,,BKN,-99.99,VWS V12.07,2013-11-11 13:11:00,
2013-11-11 14:21:00,60.6,36.2,29.41,East,99,10.7,13.0,40,0.00,,BKN,-99.99,VWS V12.07,2013-11-11 13:21:00,
2013-11-11 14:31:00,60.6,35.5,29.41,East,85,11.2,13.2,39,0.00,,BKN,-99.99,VWS V12.07,2013-11-11 13:31:00,
2013-11-11 14:41:00,60.6,36.8,29.41,East,84,8.9,12.1,41,0.00,,SCT030,-99.99,VWS V12.07,2013-11-11 13:41:00,
2013-11-11 14:51:00,61.0,37.1,29.44,ENE,68,5.1,13.6,41,0.00,,SCT030,-99.99,VWS V12.07,2013-11-11 13:51:00,
2013-11-11 15:01:00,60.4,36.7,29.44,ENE,77,6.9,10.3,41,0.00,,SCT030,-99.99,VWS V12.07,2013-11-11 14:01:00,
2013-11-11 15:11:00,60.1,36.9,29.44,NE,46,8.3,15.4,42,0.00,,SCT030,-99.99,VWS V12.07,2013-11-11 14:11:00,
2013-11-11 15:21:00,58.8,37.5,29.44,ENE,74,16.3,18.3,45,0.00,,SCT030,-99.99,VWS V12.07,2013-11-11 14:21:00,
2013-11-11 15:31:00,58.8,37.5,29.44,NE,38,8.9,15.0,45,0.00,,SCT030,-99.99,VWS V12.07,2013-11-11 14:31:00,
2013-11-11 15:41:00,58.6,35.6,29.44,ENE,59,9.4,12.5,42,0.00,,BKN,-99.99,VWS V12.07,2013-11-11 14:41:00,
2013-11-11 15:51:00,59.2,34.9,29.44,East,95,10.7,15.0,40,0.00,,BKN,-99.99,VWS V12.07,2013-11-11 14:51:00,
2013-11-11 16:01:00,57.9,38.4,29.44,ENE,59,16.8,16.8,48,0.00,,BKN,-99.99,VWS V12.07,2013-11-11 15:01:00,
2013-11-11 16:11:00,57.4,38.9,29.47,NE,47,11.6,13.0,50,0.00,,BKN,-99.99,VWS V12.07,2013-11-11 15:11:00,
2013-11-11 16:21:00,57.4,38.9,29.47,ESE,120,8.9,9.8,50,0.00,,BKN,-99.99,VWS V12.07,2013-11-11 15:21:00,
2013-11-11 16:31:00,55.9,43.1,29.47,NNE,31,6.5,12.5,62,0.08,,BKN,-99.99,VWS V12.07,2013-11-11 15:31:00,
2013-11-11 16:41:00,58.5,38.9,29.47,East,89,14.1,18.8,48,0.08,,BKN,-99.99,VWS V12.07,2013-11-11 15:41:00,
2013-11-11 16:51:00,58.6,39.0,29.47,North,4,11.6,12.5,48,0.08,,BKN,-99.99,VWS V12.07,2013-11-11 15:51:00,
2013-11-11 17:01:00,59.0,38.3,29.47,ENE,69,10.7,15.0,46,0.08,,BKN,-99.99,VWS V12.07,2013-11-11 16:01:00,
2013-11-11 17:11:00,58.8,39.2,29.47,ESE,108,6.0,12.5,48,0.08,,BKN,-99.99,VWS V12.07,2013-11-11 16:11:00,
2013-11-11 17:21:00,58.5,39.4,29.47,East,84,7.4,13.2,49,0.08,,BKN,-99.99,VWS V12.07,2013-11-11 16:21:00,
2013-11-11 17:31:00,58.5,39.4,29.47,ENE,76,10.7,15.4,49,0.08,,BKN,-99.99,VWS V12.07,2013-11-11 16:31:00,
2013-11-11 17:41:00,58.8,38.7,29.50,NE,54,9.4,14.1,47,0.00, -RA,-RA,-99.99,VWS V12.07,2013-11-11 16:41:00,
2013-11-11 17:51:00,58.8,37.5,29.50,NNE,30,11.6,12.1,45,0.00, -RA,-RA,-99.99,VWS V12.07,2013-11-11 16:51:00,
2013-11-11 18:01:00,58.6,37.4,29.50,SE,132,9.8,12.1,45,0.00, -RA,-RA,-99.99,VWS V12.07,2013-11-11 17:01:00,
2013-11-11 18:11:00,58.5,36.7,29.50,ENE,74,13.6,13.6,44,0.00, -RA,-RA,-99.99,VWS V12.07,2013-11-11 17:11:00,
2013-11-11 18:21:00,58.8,35.8,29.50,East,101,6.0,12.5,42,0.00, -RA,-RA,-99.99,VWS V12.07,2013-11-11 17:21:00,
2013-11-11 18:31:00,59.0,34.7,29.50,ENE,77,10.7,14.5,40,0.00, -RA,-RA,-99.99,VWS V12.07,2013-11-11 17:31:00,
2013-11-11 18:41:00,58.8,34.6,29.53,ENE,76,5.1,9.8,40,0.00,,BKN,-99.99,VWS V12.07,2013-11-11 17:41:00,
2013-11-11 18:51:00,59.2,34.3,29.53,NE,35,11.6,15.0,39,0.00,,BKN,-99.99,VWS V12.07,2013-11-11 17:51:00,
2013-11-11 19:01:00,58.8,35.2,29.53,ESE,106,5.6,9.4,41,0.00,,BKN,-99.99,VWS V12.07,2013-11-11 18:01:00,
2013-11-11 19:11:00,58.8,34.6,29.53,ENE,61,9.8,13.0,40,0.00,,BKN,-99.99,VWS V12.07,2013-11-11 18:11:00,
2013-11-11 19:21:00,58.8,35.2,29.56,ESE,106,7.8,15.4,41,0.00,,BKN,-99.99,VWS V12.07,2013-11-11 18:21:00,
2013-11-11 19:30:00,58.6,35.0,29.56,East,91,4.7,8.9,41,0.00,,BKN,-99.99,VWS V12.07,2013-11-11 18:30:00,
2013-11-11 19:41:00,59.0,34.1,29.56,NE,44,7.8,13.0,39,0.00,,BKN,-99.99,VWS V12.07,2013-11-11 18:41:00,
2013-11-11 19:51:00,58.8,34.6,29.56,NNE,33,9.8,14.1,40,0.00,,BKN,-99.99,VWS V12.07,2013-11-11 18:51:00,
2013-11-11 20:01:00,59.0,34.7,29.56,ENE,65,14.1,15.9,40,0.00,,BKN,-99.99,VWS V12.07,2013-11-11 19:01:00,
2013-11-11 20:11:00,59.4,35.1,29.56,East,86,12.5,14.5,40,0.00,,BKN,-99.99,VWS V12.07,2013-11-11 19:11:00,
2013-11-11 20:21:00,59.2,35.5,29.56,ENE,74,8.9,11.6,41,0.00,,BKN,-99.99,VWS V12.07,2013-11-11 19:21:00,
2013-11-11 20:31:00,59.2,35.5,29.56,NE,39,12.5,12.5,41,0.00,,BKN,-99.99,VWS V12.07,2013-11-11 19:31:00,
2013-11-11 20:41:00,59.2,36.1,29.56,East,95,8.9,14.1,42,0.00,,SCT040,-99.99,VWS V12.07,2013-11-11 19:41:00,
2013-11-11 20:51:00,59.0,36.6,29.56,SE,130,12.5,17.7,43,0.00,,SCT040,-99.99,VWS V12.07,2013-11-11 19:51:00,
2013-11-11 21:00:00,59.0,37.1,29.56,ENE,60,12.5,15.4,44,0.00,,SCT040,-99.99,VWS V12.07,2013-11-11 20:00:00,
2013-11-11 21:11:00,59.0,37.1,29.59,East,85,10.3,13.6,44,0.00,,SCT040,-99.99,VWS V12.07,2013-11-11 20:11:00,
2013-11-11 21:21:00,59.0,37.1,29.59,East,82,13.2,16.3,44,0.00,,SCT040,-99.99,VWS V12.07,2013-11-11 20:21:00,
2013-11-11 21:31:00,59.2,35.5,29.59,NE,54,15.4,15.4,41,0.00,,SCT040,-99.99,VWS V12.07,2013-11-11 20:31:00,
2013-11-11 21:41:00,58.8,36.4,29.59,ENE,63,10.7,13.2,43,0.00,,BKN,-99.99,VWS V12.07,2013-11-11 20:41:00,
2013-11-11 21:51:00,59.0,35.3,29.59,ENE,61,14.1,16.8,41,0.00,,BKN,-99.99,VWS V12.07,2013-11-11 20:51:00,
2013-11-11 22:00:00,58.8,35.8,29.59,East,87,13.6,14.1,42,0.00,,BKN,-99.99,VWS V12.07,2013-11-11 21:00:00,
2013-11-11 22:12:00,58.8,35.8,29.59,East,81,9.4,18.3,42,0.00,,BKN,-99.99,VWS V12.07,2013-11-11 21:12:00,
2013-11-11 22:21:00,58.8,35.8,29.59,ENE,73,15.0,18.3,42,0.00,,BKN,-99.99,VWS V12.07,2013-11-11 21:21:00,
2013-11-11 22:31:00,58.8,35.8,29.59,ENE,70,8.3,13.0,42,0.00,,BKN,-99.99,VWS V12.07,2013-11-11 21:31:00,
2013-11-11 22:41:00,58.8,35.8,29.59,ENE,59,13.0,14.1,42,0.00,,BKN,-99.99,VWS V12.07,2013-11-11 21:41:00,
2013-11-11 22:51:00,58.8,35.8,29.59,ENE,71,9.8,13.0,42,0.00,,BKN,-99.99,VWS V12.07,2013-11-11 21:51:00,
2013-11-11 23:01:00,58.6,35.6,29.59,NE,55,14.5,17.7,42,0.00,,BKN,-99.99,VWS V12.07,2013-11-11 22:01:00,
2013-11-11 23:10:00,58.6,35.0,29.62,NE,54,17.9,17.9,41,0.00,,BKN,-99.99,VWS V12.07,2013-11-11 22:10:00,
2013-11-11 23:21:00,58.5,34.9,29.62,ENE,61,16.3,17.2,41,0.00,,BKN,-99.99,VWS V12.07,2013-11-11 22:21:00,
2013-11-11 23:31:00,58.1,35.7,29.62,East,84,9.4,13.2,43,0.00,,BKN,-99.99,VWS V12.07,2013-11-11 22:31:00,
2013-11-11 23:41:00,57.9,35.6,29.62,ENE,68,8.9,10.3,43,0.00,,SCT,-99.99,VWS V12.07,2013-11-11 22:41:00,
2013-11-11 23:51:00,57.7,36.0,29.62,ENE,77,13.0,13.0,44,0.00,,SCT,-99.99,VWS V12.07,2013-11-11 22:51:00,